createdAt,value
2019-05-03T00:00:02.487Z,57.44
2019-05-03T00:02:48.130Z,57.14
2019-05-03T00:05:44.448Z,57.28
2019-05-03T00:08:12.661Z,57.54
2019-05-03T00:10:42.446Z,57.52
2019-05-03T00:13:12.312Z,57.35
2019-05-03T00:16:02.584Z,57.42
2019-05-03T00:18:30.335Z,57.47
2019-05-03T00:20:58.180Z,57.58
2019-05-03T00:23:25.918Z,57.42
2019-05-03T00:25:53.824Z,57.40
2019-05-03T00:28:21.826Z,57.35
2019-05-03T00:30:51.674Z,57.31
2019-05-03T00:33:19.282Z,57.05
2019-05-03T00:36:04.958Z,56.95
2019-05-03T00:38:32.726Z,56.41
2019-05-03T00:41:01.847Z,56.29
2019-05-03T00:43:31.666Z,56.20
2019-05-03T00:45:59.412Z,56.34
2019-05-03T00:48:27.253Z,56.33
2019-05-03T00:50:54.847Z,56.16
2019-05-03T00:53:22.657Z,56.11
2019-05-03T00:55:52.485Z,56.14
2019-05-03T00:58:22.235Z,56.65
2019-05-03T01:00:49.833Z,57.01
2019-05-03T01:03:17.691Z,57.25
2019-05-03T01:05:45.560Z,57.05
2019-05-03T01:08:13.134Z,57.26
2019-05-03T01:10:42.144Z,56.89
2019-05-03T01:13:10.057Z,57.42
2019-05-03T01:15:47.996Z,57.28
2019-05-03T01:18:19.036Z,57.29
2019-05-03T01:20:46.716Z,57.55
2019-05-03T01:23:14.479Z,57.31
2019-05-03T01:25:42.903Z,57.18
2019-05-03T01:28:12.254Z,57.46
2019-05-03T01:30:40.109Z,57.67
2019-05-03T01:33:07.717Z,57.16
2019-05-03T01:35:35.509Z,57.26
2019-05-03T01:38:03.320Z,57.57
2019-05-03T01:40:32.604Z,57.26
2019-05-03T01:43:02.233Z,57.28
2019-05-03T01:45:31.817Z,57.44
2019-05-03T01:48:12.561Z,57.17
2019-05-03T01:50:57.886Z,57.38
2019-05-03T01:53:26.647Z,57.34
2019-05-03T01:55:54.369Z,57.51
2019-05-03T01:58:22.465Z,57.38
2019-05-03T02:00:53.019Z,57.35
2019-05-03T02:03:39.068Z,57.61
2019-05-03T02:06:06.883Z,57.47
2019-05-03T02:08:34.710Z,57.20
2019-05-03T02:11:02.352Z,56.93
2019-05-03T02:13:32.139Z,57.08
2019-05-03T02:15:59.860Z,57.77
2019-05-03T02:18:27.731Z,57.55
2019-05-03T02:20:55.497Z,57.81
2019-05-03T02:23:23.460Z,57.54
2019-05-03T02:25:56.822Z,57.22
2019-05-03T02:28:22.076Z,57.50
2019-05-03T02:30:49.961Z,57.28
2019-05-03T02:33:17.728Z,57.70
2019-05-03T02:35:45.397Z,57.33
2019-05-03T02:38:14.223Z,57.25
2019-05-03T02:40:42.945Z,57.52
2019-05-03T02:43:27.223Z,57.28
2019-05-03T02:46:06.185Z,57.21
2019-05-03T02:48:47.438Z,57.27
2019-05-03T02:51:15.754Z,57.42
2019-05-03T02:53:45.736Z,57.55
2019-05-03T02:56:21.583Z,57.35
2019-05-03T02:58:42.947Z,57.39
2019-05-03T03:01:10.473Z,57.61
2019-05-03T03:03:38.239Z,57.58
2019-05-03T03:06:06.907Z,57.43
2019-05-03T03:08:36.866Z,57.59
2019-05-03T03:11:06.232Z,57.58
2019-05-03T03:13:36.776Z,57.47
2019-05-03T03:16:06.795Z,57.38
2019-05-03T03:18:36.604Z,57.60
2019-05-03T03:21:05.897Z,57.65
2019-05-03T03:23:45.924Z,57.41
2019-05-03T03:26:15.462Z,57.37
2019-05-03T03:28:42.646Z,57.51
2019-05-03T03:32:09.134Z,57.50
2019-05-03T03:34:39.308Z,57.31
2019-05-03T03:37:10.186Z,57.25
2019-05-03T03:39:36.660Z,57.15
2019-05-03T03:42:05.313Z,57.24
2019-05-03T03:44:36.012Z,57.28
2019-05-03T03:47:05.230Z,57.20
2019-05-03T03:49:35.442Z,58.08
2019-05-03T03:52:02.321Z,57.84
2019-05-03T03:54:35.246Z,58.88
2019-05-03T03:57:04.808Z,59.00
2019-05-03T03:59:32.133Z,58.73
2019-05-03T04:01:59.795Z,59.03
2019-05-03T04:04:27.654Z,58.91
2019-05-03T04:07:00.680Z,58.79
2019-05-03T04:09:25.659Z,59.08
2019-05-03T04:11:56.417Z,58.47
2019-05-03T04:14:31.575Z,58.95
2019-05-03T04:17:27.763Z,59.37
2019-05-03T04:19:56.073Z,59.12
2019-05-03T04:22:25.369Z,58.76
2019-05-03T04:24:55.198Z,58.56
2019-05-03T04:27:26.980Z,58.10
2019-05-03T04:29:52.476Z,57.96
2019-05-03T04:32:19.970Z,57.55
2019-05-03T04:34:47.759Z,57.41
2019-05-03T04:37:16.279Z,57.29
2019-05-03T04:39:45.630Z,57.15
2019-05-03T04:42:16.390Z,56.45
2019-05-03T04:44:45.669Z,55.77
2019-05-03T04:47:15.397Z,55.30
2019-05-03T04:49:42.219Z,54.88
2019-05-03T04:52:09.836Z,54.59
2019-05-03T04:54:51.263Z,54.34
2019-05-03T04:57:34.911Z,54.07
2019-05-03T04:59:48.278Z,53.87
2019-05-03T05:02:16.167Z,53.83
2019-05-03T05:04:46.259Z,54.12
2019-05-03T05:07:35.123Z,54.34
2019-05-03T05:10:05.066Z,54.23
2019-05-03T05:12:32.266Z,54.31
2019-05-03T05:14:59.863Z,54.55
2019-05-03T05:17:40.050Z,54.59
2019-05-03T05:20:35.091Z,54.93
2019-05-03T05:23:04.539Z,54.83
2019-05-03T05:25:37.182Z,54.92
2019-05-03T05:28:15.205Z,55.16
2019-05-03T05:30:45.909Z,54.59
2019-05-03T05:33:22.577Z,54.78
2019-05-03T05:35:51.315Z,53.90
2019-05-03T05:38:20.422Z,53.92
2019-05-03T05:40:52.320Z,53.81
2019-05-03T05:43:20.462Z,53.87
2019-05-03T05:45:48.629Z,54.07
2019-05-03T05:48:21.975Z,54.12
2019-05-03T05:50:49.442Z,54.07
2019-05-03T05:53:16.902Z,54.10
2019-05-03T05:56:02.366Z,54.58
2019-05-03T05:58:52.262Z,54.31
2019-05-03T06:01:26.236Z,54.38
2019-05-03T06:03:55.100Z,54.18
2019-05-03T06:06:30.765Z,54.14
2019-05-03T06:09:05.713Z,53.85
2019-05-03T06:11:39.078Z,53.81
2019-05-03T06:14:11.541Z,53.89
2019-05-03T06:16:45.656Z,53.75
2019-05-03T06:19:17.180Z,53.84
2019-05-03T06:22:02.550Z,53.83
2019-05-03T06:24:34.963Z,53.84
2019-05-03T06:27:12.457Z,53.85
2019-05-03T06:29:40.501Z,54.01
2019-05-03T06:32:22.065Z,53.73
2019-05-03T06:34:49.906Z,53.87
2019-05-03T06:37:19.354Z,53.65
2019-05-03T06:39:46.824Z,53.29
2019-05-03T06:42:17.477Z,53.65
2019-05-03T06:44:45.522Z,53.48
2019-05-03T06:47:14.860Z,53.45
2019-05-03T06:49:44.967Z,53.36
2019-05-03T06:52:12.243Z,53.38
2019-05-03T06:54:39.721Z,53.37
2019-05-03T06:57:09.874Z,53.31
2019-05-03T06:59:45.141Z,53.09
2019-05-03T07:02:30.925Z,52.80
2019-05-03T07:04:59.340Z,52.79
2019-05-03T07:07:54.727Z,52.64
2019-05-03T07:10:44.570Z,52.55
2019-05-03T07:13:12.137Z,52.62
2019-05-03T07:15:39.593Z,52.71
2019-05-03T07:18:07.133Z,52.82
2019-05-03T07:20:57.070Z,52.88
2019-05-03T07:23:24.945Z,52.52
2019-05-03T07:25:52.417Z,52.55
2019-05-03T07:28:20.296Z,52.25
2019-05-03T07:30:47.900Z,52.32
2019-05-03T07:33:35.021Z,52.06
2019-05-03T07:36:02.702Z,51.80
2019-05-03T07:38:30.178Z,51.75
2019-05-03T07:40:57.696Z,51.94
2019-05-03T07:43:25.439Z,52.19
2019-05-03T07:45:55.087Z,52.45
2019-05-03T07:48:22.300Z,52.26
2019-05-03T07:50:50.176Z,51.79
2019-05-03T07:53:18.016Z,51.87
2019-05-03T07:56:15.426Z,51.71
2019-05-03T07:58:59.483Z,51.95
2019-05-03T08:01:22.732Z,51.87
2019-05-03T08:03:50.861Z,51.61
2019-05-03T08:06:18.397Z,51.49
2019-05-03T08:08:45.990Z,51.25
2019-05-03T08:11:14.516Z,51.22
2019-05-03T08:13:42.170Z,51.27
2019-05-03T08:16:09.677Z,51.25
2019-05-03T08:18:37.155Z,51.12
2019-05-03T08:21:05.585Z,51.13
2019-05-03T08:23:35.267Z,51.05
2019-05-03T08:26:02.838Z,51.38
2019-05-03T08:28:30.340Z,51.58
2019-05-03T08:31:10.217Z,51.48
2019-05-03T08:33:45.821Z,51.46
2019-05-03T08:36:15.477Z,51.52
2019-05-03T08:38:42.834Z,51.30
2019-05-03T08:41:14.480Z,50.81
2019-05-03T08:43:48.636Z,51.04
2019-05-03T08:46:16.141Z,51.03
2019-05-03T08:48:45.486Z,50.96
2019-05-03T08:51:14.834Z,50.71
2019-05-03T08:53:42.506Z,51.03
2019-05-03T08:56:10.164Z,50.44
2019-05-03T08:58:37.935Z,50.71
2019-05-03T09:01:05.789Z,50.37
2019-05-03T09:03:36.287Z,49.47
2019-05-03T09:06:04.516Z,49.79
